Cap Aiguades — FMII — position and weather

sailwx.info

Track history (hours):
 
Tides and Currents Weather Stations Pressure Air Temp Water Temp Dewpoint Dewpoint Depression Visibility Wind Speed Wind Dir Waves Ship Positions

Cap Aiguades

Last reported at 2017-Jan-21 18:33 UTC. Time now 2017-Jan-21 19:31 UTC.
Position N 43°24' E 004°59'.

Length 89 m; draft 3.4 m.

Type: Ship. MMSI: 228237800.

Date/timePositionNaut miles runAvg speedWind from/ knotsBaromVisibWave heightAir tempDewpointWater temp
2017-Jan-21 18:33N 43°24' E 004°59'0 0.0
2017-Jan-21 17:33N 43°24' E 004°59'0 0.0
2017-Jan-21 16:33N 43°24' E 004°59'0 0.0
2017-Jan-21 15:33N 43°24' E 004°59'0 0.0
2017-Jan-21 14:33N 43°24' E 004°59'0 0.0
2017-Jan-21 13:33N 43°24' E 004°59'0 0.0
2017-Jan-21 12:34N 43°24' E 004°59'0 0.0
2017-Jan-21 11:33N 43°24' E 004°59'7 6.1
2017-Jan-21 10:23N 43°17' E 005°03'0 0.1
2017-Jan-21 05:06N 43°17' E 005°03'610.6
2017-Jan-21 04:30N 43°23' E 004°59'1 1.3
2017-Jan-21 03:33N 43°24' E 004°59'0 0.0
2017-Jan-21 02:33N 43°24' E 004°60'0 0.0
2017-Jan-21 01:33N 43°24' E 004°59'0 0.0
2017-Jan-21 00:33N 43°24' E 004°60'0 0.0
2017-Jan-20 23:33N 43°24' E 004°59'0 0.0
2017-Jan-20 22:33N 43°24' E 004°59'0 0.0
2017-Jan-20 21:33N 43°24' E 004°59'0 0.0
2017-Jan-20 20:33N 43°24' E 004°60'0 0.1
2017-Jan-20 19:33N 43°24' E 004°60'0 0.0
2017-Jan-20 18:33N 43°24' E 004°60'0 0.0
2017-Jan-20 17:33N 43°24' E 004°60'1 0.0
2017-Jan-19 16:06N 43°23' E 004°59'1 1.0
2017-Jan-19 15:33N 43°24' E 004°59'0 0.0
2017-Jan-19 14:34N 43°24' E 004°59'0 0.0
2017-Jan-19 13:33N 43°24' E 004°59'0 0.0
2017-Jan-19 12:33N 43°24' E 004°59'0 0.0
2017-Jan-19 11:33N 43°24' E 004°59'0 0.0
2017-Jan-19 10:33N 43°24' E 004°59'0 0.0
2017-Jan-19 09:33N 43°24' E 004°59'0 0.0
2017-Jan-19 08:33N 43°24' E 004°59'0 0.0
2017-Jan-19 07:33N 43°24' E 004°59'0 0.0
2017-Jan-19 06:33N 43°24' E 004°59'0 0.0
2017-Jan-19 05:33N 43°24' E 004°59'1 0.6
2017-Jan-19 04:33N 43°24' E 004°59'0 0.0
2017-Jan-19 03:33N 43°24' E 004°59'0 0.0
2017-Jan-19 02:33N 43°24' E 004°59'0 0.0
2017-Jan-19 01:33N 43°24' E 004°59'0 0.0
2017-Jan-19 00:33N 43°24' E 004°59'0 0.0
2017-Jan-18 23:33N 43°24' E 004°59'0 0.0
2017-Jan-18 22:33N 43°24' E 004°59'6 4.3
2017-Jan-18 21:08N 43°25' E 004°51'0 0.1
2017-Jan-18 20:31N 43°25' E 004°51'0 0.0
2017-Jan-18 18:33N 43°25' E 004°51'0 0.0
2017-Jan-18 16:09N 43°25' E 004°51'0 0.0
2017-Jan-18 15:31N 43°25' E 004°51'0 0.0
2017-Jan-18 12:05N 43°25' E 004°51'6 8.1
2017-Jan-18 11:24N 43°23' E 004°59'1 0.8
2017-Jan-18 10:33N 43°24' E 004°59'0 0.0
2017-Jan-18 09:33N 43°24' E 004°59'0 0.0
2017-Jan-18 08:33N 43°24' E 004°59'0 0.0
2017-Jan-18 07:33N 43°24' E 004°59'0 0.0
2017-Jan-18 06:33N 43°24' E 004°59'0 0.0
2017-Jan-18 05:33N 43°24' E 004°59'0 0.0
2017-Jan-18 04:33N 43°24' E 004°59'0 0.0
2017-Jan-18 03:33N 43°24' E 004°59'0 0.0
2017-Jan-18 02:33N 43°24' E 004°59'0 0.0
2017-Jan-18 01:33N 43°24' E 004°59'0 0.0
2017-Jan-18 00:33N 43°24' E 004°59'0 0.0
2017-Jan-17 23:34N 43°24' E 004°59'1 0.6
2017-Jan-17 22:33N 43°24' E 004°59'0 0.0
2017-Jan-17 21:33N 43°24' E 004°59'0 0.0
2017-Jan-17 20:33N 43°24' E 004°59'0 0.0
2017-Jan-17 19:33N 43°24' E 004°59'0 0.1
2017-Jan-17 18:33N 43°24' E 004°59'7 0.2
2017-Jan-16 12:27N 43°17' E 005°04'7 8.0
2017-Jan-16 11:33N 43°24' E 004°59'0 0.0
2017-Jan-16 10:33N 43°24' E 004°59'0 0.0
2017-Jan-16 09:33N 43°24' E 004°59'0 0.0
2017-Jan-16 08:33N 43°24' E 004°59'0 0.0
2017-Jan-16 07:34N 43°24' E 004°59'0 0.0
2017-Jan-16 06:33N 43°24' E 004°59'1 0.6
2017-Jan-16 05:33N 43°24' E 004°59'0 0.0
2017-Jan-16 04:33N 43°24' E 004°59'0 0.0
2017-Jan-16 03:33N 43°24' E 004°59'0 0.0
2017-Jan-16 02:33N 43°24' E 004°59'0 0.0
2017-Jan-16 01:33N 43°24' E 004°59'0 0.0
2017-Jan-16 00:33N 43°24' E 004°59'0 0.0
2017-Jan-15 23:33N 43°24' E 004°59'0 0.0
2017-Jan-15 22:33N 43°24' E 004°59'0 0.0
2017-Jan-15 21:33N 43°24' E 004°59'0 0.0
2017-Jan-15 20:33N 43°24' E 004°59'0 0.0
2017-Jan-15 19:33N 43°24' E 004°59'0 0.0
2017-Jan-15 18:33N 43°24' E 004°59'0 0.0
2017-Jan-15 17:33N 43°24' E 004°59'0 0.0
2017-Jan-15 16:33N 43°24' E 004°59'0 0.0
2017-Jan-15 15:33N 43°24' E 004°59'0 0.0
2017-Jan-15 14:33N 43°24' E 004°59'0 0.0
2017-Jan-15 13:33N 43°24' E 004°59'0 0.0
2017-Jan-15 12:33N 43°24' E 004°59'0 0.0
2017-Jan-15 11:33N 43°24' E 004°59'0 0.0
2017-Jan-15 10:34N 43°24' E 004°59'0 0.0
2017-Jan-15 09:33N 43°24' E 004°59'0 0.0
2017-Jan-15 08:33N 43°24' E 004°59'0 0.0
2017-Jan-15 07:33N 43°24' E 004°59'0 0.0
2017-Jan-15 06:33N 43°24' E 004°59'0 0.0
2017-Jan-15 05:33N 43°24' E 004°59'0 0.0
2017-Jan-15 04:33N 43°24' E 004°59'0 0.0
2017-Jan-15 03:33N 43°24' E 004°59'0 0.0
2017-Jan-15 02:33N 43°24' E 004°59'0 0.0
2017-Jan-15 01:33N 43°24' E 004°59'0 0.0
2017-Jan-15 00:33N 43°24' E 004°59'0 0.5
2017-Jan-14 23:33N 43°24' E 004°60'0 0.0
2017-Jan-14 22:33N 43°24' E 004°60'0 0.0
2017-Jan-14 21:33N 43°24' E 004°60'0 0.0
2017-Jan-14 20:33N 43°24' E 004°60'0 0.4
2017-Jan-14 19:33N 43°24' E 004°59'0 0.0
2017-Jan-14 18:33N 43°24' E 004°59'0 0.0
2017-Jan-14 17:33N 43°24' E 004°59'0 0.0
2017-Jan-14 16:33N 43°24' E 004°59'0 0.0
2017-Jan-14 15:33N 43°24' E 004°59'0 0.0
2017-Jan-14 14:33N 43°24' E 004°59'0 0.0
2017-Jan-14 13:33N 43°24' E 004°59'0 0.0
2017-Jan-14 12:33N 43°24' E 004°59'0 0.0
2017-Jan-14 11:33N 43°24' E 004°59'0 0.0
2017-Jan-14 10:33N 43°24' E 004°59'0 0.0
2017-Jan-14 09:33N 43°24' E 004°59'0 0.0
2017-Jan-14 08:33N 43°24' E 004°59'0 0.0
2017-Jan-14 07:33N 43°24' E 004°59'0 0.0
2017-Jan-14 06:33N 43°24' E 004°59'0 0.0
2017-Jan-14 05:33N 43°24' E 004°59'0 0.0
2017-Jan-14 04:33N 43°24' E 004°59'0 0.0
2017-Jan-14 03:33N 43°24' E 004°59'0 0.0
2017-Jan-13 23:33N 43°24' E 004°59'0 0.0
2017-Jan-13 22:33N 43°24' E 004°59'0 0.0
2017-Jan-13 21:33N 43°24' E 004°59'0 0.0
2017-Jan-13 20:33N 43°24' E 004°59'0 0.0
2017-Jan-13 19:33N 43°24' E 004°59'0 0.0
2017-Jan-13 18:33N 43°24' E 004°59'0 0.0
2017-Jan-13 17:33N 43°24' E 004°59'0 0.0
2017-Jan-13 16:33N 43°24' E 004°59'0 0.0
2017-Jan-13 15:33N 43°24' E 004°59'4 4.2
2017-Jan-13 14:33N 43°20' E 004°59'13 2.4
2017-Jan-13 09:04N 43°21' E 005°17'12 6.8
2017-Jan-13 07:16N 43°19' E 005°01'5 6.9
2017-Jan-13 06:33N 43°24' E 004°59'0 0.0
2017-Jan-13 05:33N 43°24' E 004°59'0 0.0
2017-Jan-13 04:33N 43°24' E 004°59'0 0.0
2017-Jan-13 03:33N 43°24' E 004°59'0 0.0
2017-Jan-13 02:33N 43°24' E 004°59'0 0.0
2017-Jan-13 01:33N 43°24' E 004°59'0 0.0
2017-Jan-13 00:33N 43°24' E 004°59'0 0.0
2017-Jan-12 23:33N 43°24' E 004°59'0 0.0
2017-Jan-12 22:33N 43°24' E 004°59'0 0.0
2017-Jan-12 21:33N 43°24' E 004°59'0 0.3
2017-Jan-12 20:33N 43°24' E 004°59'0 0.3
2017-Jan-12 19:33N 43°24' E 004°59'0 0.0
2017-Jan-12 18:33N 43°24' E 004°59'0 0.0
2017-Jan-12 17:33N 43°24' E 004°59'0 0.0
2017-Jan-12 16:33N 43°24' E 004°59'0 0.0
2017-Jan-12 15:33N 43°24' E 004°59'0 0.0
2017-Jan-12 14:33N 43°24' E 004°59'0 0.0
2017-Jan-12 13:33N 43°24' E 004°59'0 0.0
2017-Jan-12 12:33N 43°24' E 004°59'0 0.0
2017-Jan-12 11:33N 43°24' E 004°59'0 0.0
2017-Jan-12 10:33N 43°24' E 004°59'0 0.0
2017-Jan-12 09:33N 43°24' E 004°59'0 0.0
2017-Jan-12 08:33N 43°24' E 004°59'0 0.0
2017-Jan-12 07:33N 43°24' E 004°59'0 0.0
2017-Jan-12 06:33N 43°24' E 004°59'0 0.0
2017-Jan-12 05:33N 43°24' E 004°59'0 0.0
2017-Jan-12 04:33N 43°24' E 004°59'0 0.0
2017-Jan-12 03:33N 43°24' E 004°59'0 0.0
2017-Jan-12 02:33N 43°24' E 004°59'0 0.0
2017-Jan-12 01:33N 43°24' E 004°59'0 0.0
2017-Jan-12 00:33N 43°24' E 004°59'0 0.0
2017-Jan-11 23:33N 43°24' E 004°59'0 0.0
2017-Jan-11 22:33N 43°24' E 004°59'0 0.0
2017-Jan-11 21:33N 43°24' E 004°59'0 0.0
2017-Jan-11 20:33N 43°24' E 004°59'0 0.0
2017-Jan-11 19:33N 43°24' E 004°59'  
Track history (hours):
 
Tides and Currents Weather Stations Pressure Air Temp Water Temp Dewpoint Dewpoint Depression Visibility Wind Speed Wind Dir Waves Ship Positions

Cap Aiguades

Last reported at 2017-Jan-21 18:33 UTC. Time now 2017-Jan-21 19:31 UTC.
Position N 43°24' E 004°59'.

Length 89 m; draft 3.4 m.

Type: Ship. MMSI: 228237800.

Date/timePositionNaut miles runAvg speedWind from/ knotsBaromVisibWave heightAir tempDewpointWater temp
2017-Jan-21 18:33N 43°24' E 004°59'0 0.0
2017-Jan-21 17:33N 43°24' E 004°59'0 0.0
2017-Jan-21 16:33N 43°24' E 004°59'0 0.0
2017-Jan-21 15:33N 43°24' E 004°59'0 0.0
2017-Jan-21 14:33N 43°24' E 004°59'0 0.0
2017-Jan-21 13:33N 43°24' E 004°59'0 0.0
2017-Jan-21 12:34N 43°24' E 004°59'0 0.0
2017-Jan-21 11:33N 43°24' E 004°59'7 6.1
2017-Jan-21 10:23N 43°17' E 005°03'0 0.1
2017-Jan-21 05:06N 43°17' E 005°03'610.6
2017-Jan-21 04:30N 43°23' E 004°59'1 1.3
2017-Jan-21 03:33N 43°24' E 004°59'0 0.0
2017-Jan-21 02:33N 43°24' E 004°60'0 0.0
2017-Jan-21 01:33N 43°24' E 004°59'0 0.0
2017-Jan-21 00:33N 43°24' E 004°60'0 0.0
2017-Jan-20 23:33N 43°24' E 004°59'0 0.0
2017-Jan-20 22:33N 43°24' E 004°59'0 0.0
2017-Jan-20 21:33N 43°24' E 004°59'0 0.0
2017-Jan-20 20:33N 43°24' E 004°60'0 0.1
2017-Jan-20 19:33N 43°24' E 004°60'0 0.0
2017-Jan-20 18:33N 43°24' E 004°60'0 0.0
2017-Jan-20 17:33N 43°24' E 004°60'1 0.0
2017-Jan-19 16:06N 43°23' E 004°59'1 1.0
2017-Jan-19 15:33N 43°24' E 004°59'0 0.0
2017-Jan-19 14:34N 43°24' E 004°59'0 0.0
2017-Jan-19 13:33N 43°24' E 004°59'0 0.0
2017-Jan-19 12:33N 43°24' E 004°59'0 0.0
2017-Jan-19 11:33N 43°24' E 004°59'0 0.0
2017-Jan-19 10:33N 43°24' E 004°59'0 0.0
2017-Jan-19 09:33N 43°24' E 004°59'0 0.0
2017-Jan-19 08:33N 43°24' E 004°59'0 0.0
2017-Jan-19 07:33N 43°24' E 004°59'0 0.0
2017-Jan-19 06:33N 43°24' E 004°59'0 0.0
2017-Jan-19 05:33N 43°24' E 004°59'1 0.6
2017-Jan-19 04:33N 43°24' E 004°59'0 0.0
2017-Jan-19 03:33N 43°24' E 004°59'0 0.0
2017-Jan-19 02:33N 43°24' E 004°59'0 0.0
2017-Jan-19 01:33N 43°24' E 004°59'0 0.0
2017-Jan-19 00:33N 43°24' E 004°59'0 0.0
2017-Jan-18 23:33N 43°24' E 004°59'0 0.0
2017-Jan-18 22:33N 43°24' E 004°59'6 4.3
2017-Jan-18 21:08N 43°25' E 004°51'0 0.1
2017-Jan-18 20:31N 43°25' E 004°51'0 0.0
2017-Jan-18 18:33N 43°25' E 004°51'0 0.0
2017-Jan-18 16:09N 43°25' E 004°51'0 0.0
2017-Jan-18 15:31N 43°25' E 004°51'0 0.0
2017-Jan-18 12:05N 43°25' E 004°51'6 8.1
2017-Jan-18 11:24N 43°23' E 004°59'1 0.8
2017-Jan-18 10:33N 43°24' E 004°59'0 0.0
2017-Jan-18 09:33N 43°24' E 004°59'0 0.0
2017-Jan-18 08:33N 43°24' E 004°59'0 0.0
2017-Jan-18 07:33N 43°24' E 004°59'0 0.0
2017-Jan-18 06:33N 43°24' E 004°59'0 0.0
2017-Jan-18 05:33N 43°24' E 004°59'0 0.0
2017-Jan-18 04:33N 43°24' E 004°59'0 0.0
2017-Jan-18 03:33N 43°24' E 004°59'0 0.0
2017-Jan-18 02:33N 43°24' E 004°59'0 0.0
2017-Jan-18 01:33N 43°24' E 004°59'0 0.0
2017-Jan-18 00:33N 43°24' E 004°59'0 0.0
2017-Jan-17 23:34N 43°24' E 004°59'1 0.6
2017-Jan-17 22:33N 43°24' E 004°59'0 0.0
2017-Jan-17 21:33N 43°24' E 004°59'0 0.0
2017-Jan-17 20:33N 43°24' E 004°59'0 0.0
2017-Jan-17 19:33N 43°24' E 004°59'0 0.1
2017-Jan-17 18:33N 43°24' E 004°59'7 0.2
2017-Jan-16 12:27N 43°17' E 005°04'7 8.0
2017-Jan-16 11:33N 43°24' E 004°59'0 0.0
2017-Jan-16 10:33N 43°24' E 004°59'0 0.0
2017-Jan-16 09:33N 43°24' E 004°59'0 0.0
2017-Jan-16 08:33N 43°24' E 004°59'0 0.0
2017-Jan-16 07:34N 43°24' E 004°59'0 0.0
2017-Jan-16 06:33N 43°24' E 004°59'1 0.6
2017-Jan-16 05:33N 43°24' E 004°59'0 0.0
2017-Jan-16 04:33N 43°24' E 004°59'0 0.0
2017-Jan-16 03:33N 43°24' E 004°59'0 0.0
2017-Jan-16 02:33N 43°24' E 004°59'0 0.0
2017-Jan-16 01:33N 43°24' E 004°59'0 0.0
2017-Jan-16 00:33N 43°24' E 004°59'0 0.0
2017-Jan-15 23:33N 43°24' E 004°59'0 0.0
2017-Jan-15 22:33N 43°24' E 004°59'0 0.0
2017-Jan-15 21:33N 43°24' E 004°59'0 0.0
2017-Jan-15 20:33N 43°24' E 004°59'0 0.0
2017-Jan-15 19:33N 43°24' E 004°59'0 0.0
2017-Jan-15 18:33N 43°24' E 004°59'0 0.0
2017-Jan-15 17:33N 43°24' E 004°59'0 0.0
2017-Jan-15 16:33N 43°24' E 004°59'0 0.0
2017-Jan-15 15:33N 43°24' E 004°59'0 0.0
2017-Jan-15 14:33N 43°24' E 004°59'0 0.0
2017-Jan-15 13:33N 43°24' E 004°59'0 0.0
2017-Jan-15 12:33N 43°24' E 004°59'0 0.0
2017-Jan-15 11:33N 43°24' E 004°59'0 0.0
2017-Jan-15 10:34N 43°24' E 004°59'0 0.0
2017-Jan-15 09:33N 43°24' E 004°59'0 0.0
2017-Jan-15 08:33N 43°24' E 004°59'0 0.0
2017-Jan-15 07:33N 43°24' E 004°59'0 0.0
2017-Jan-15 06:33N 43°24' E 004°59'0 0.0
2017-Jan-15 05:33N 43°24' E 004°59'0 0.0
2017-Jan-15 04:33N 43°24' E 004°59'0 0.0
2017-Jan-15 03:33N 43°24' E 004°59'0 0.0
2017-Jan-15 02:33N 43°24' E 004°59'0 0.0
2017-Jan-15 01:33N 43°24' E 004°59'0 0.0
2017-Jan-15 00:33N 43°24' E 004°59'0 0.5
2017-Jan-14 23:33N 43°24' E 004°60'0 0.0
2017-Jan-14 22:33N 43°24' E 004°60'0 0.0
2017-Jan-14 21:33N 43°24' E 004°60'0 0.0
2017-Jan-14 20:33N 43°24' E 004°60'0 0.4
2017-Jan-14 19:33N 43°24' E 004°59'0 0.0
2017-Jan-14 18:33N 43°24' E 004°59'0 0.0
2017-Jan-14 17:33N 43°24' E 004°59'0 0.0
2017-Jan-14 16:33N 43°24' E 004°59'0 0.0
2017-Jan-14 15:33N 43°24' E 004°59'0 0.0
2017-Jan-14 14:33N 43°24' E 004°59'0 0.0
2017-Jan-14 13:33N 43°24' E 004°59'0 0.0
2017-Jan-14 12:33N 43°24' E 004°59'0 0.0
2017-Jan-14 11:33N 43°24' E 004°59'0 0.0
2017-Jan-14 10:33N 43°24' E 004°59'0 0.0
2017-Jan-14 09:33N 43°24' E 004°59'0 0.0
2017-Jan-14 08:33N 43°24' E 004°59'0 0.0
2017-Jan-14 07:33N 43°24' E 004°59'0 0.0
2017-Jan-14 06:33N 43°24' E 004°59'0 0.0
2017-Jan-14 05:33N 43°24' E 004°59'0 0.0
2017-Jan-14 04:33N 43°24' E 004°59'0 0.0
2017-Jan-14 03:33N 43°24' E 004°59'0 0.0
2017-Jan-13 23:33N 43°24' E 004°59'0 0.0
2017-Jan-13 22:33N 43°24' E 004°59'0 0.0
2017-Jan-13 21:33N 43°24' E 004°59'0 0.0
2017-Jan-13 20:33N 43°24' E 004°59'0 0.0
2017-Jan-13 19:33N 43°24' E 004°59'0 0.0
2017-Jan-13 18:33N 43°24' E 004°59'0 0.0
2017-Jan-13 17:33N 43°24' E 004°59'0 0.0
2017-Jan-13 16:33N 43°24' E 004°59'0 0.0
2017-Jan-13 15:33N 43°24' E 004°59'4 4.2
2017-Jan-13 14:33N 43°20' E 004°59'13 2.4
2017-Jan-13 09:04N 43°21' E 005°17'12 6.8
2017-Jan-13 07:16N 43°19' E 005°01'5 6.9
2017-Jan-13 06:33N 43°24' E 004°59'0 0.0
2017-Jan-13 05:33N 43°24' E 004°59'0 0.0
2017-Jan-13 04:33N 43°24' E 004°59'0 0.0
2017-Jan-13 03:33N 43°24' E 004°59'0 0.0
2017-Jan-13 02:33N 43°24' E 004°59'0 0.0
2017-Jan-13 01:33N 43°24' E 004°59'0 0.0
2017-Jan-13 00:33N 43°24' E 004°59'0 0.0
2017-Jan-12 23:33N 43°24' E 004°59'0 0.0
2017-Jan-12 22:33N 43°24' E 004°59'0 0.0
2017-Jan-12 21:33N 43°24' E 004°59'0 0.3
2017-Jan-12 20:33N 43°24' E 004°59'0 0.3
2017-Jan-12 19:33N 43°24' E 004°59'0 0.0
2017-Jan-12 18:33N 43°24' E 004°59'0 0.0
2017-Jan-12 17:33N 43°24' E 004°59'0 0.0
2017-Jan-12 16:33N 43°24' E 004°59'0 0.0
2017-Jan-12 15:33N 43°24' E 004°59'0 0.0
2017-Jan-12 14:33N 43°24' E 004°59'0 0.0
2017-Jan-12 13:33N 43°24' E 004°59'0 0.0
2017-Jan-12 12:33N 43°24' E 004°59'0 0.0
2017-Jan-12 11:33N 43°24' E 004°59'0 0.0
2017-Jan-12 10:33N 43°24' E 004°59'0 0.0
2017-Jan-12 09:33N 43°24' E 004°59'0 0.0
2017-Jan-12 08:33N 43°24' E 004°59'0 0.0
2017-Jan-12 07:33N 43°24' E 004°59'0 0.0
2017-Jan-12 06:33N 43°24' E 004°59'0 0.0
2017-Jan-12 05:33N 43°24' E 004°59'0 0.0
2017-Jan-12 04:33N 43°24' E 004°59'0 0.0
2017-Jan-12 03:33N 43°24' E 004°59'0 0.0
2017-Jan-12 02:33N 43°24' E 004°59'0 0.0
2017-Jan-12 01:33N 43°24' E 004°59'0 0.0
2017-Jan-12 00:33N 43°24' E 004°59'0 0.0
2017-Jan-11 23:33N 43°24' E 004°59'0 0.0
2017-Jan-11 22:33N 43°24' E 004°59'0 0.0
2017-Jan-11 21:33N 43°24' E 004°59'0 0.0
2017-Jan-11 20:33N 43°24' E 004°59'0 0.0
2017-Jan-11 19:33N 43°24' E 004°59'  

Dump ship's entire track history